sensor_id;sensor_type;location;lat;lon;timestamp;P1;durP1;ratioP1;P2;durP2;ratioP2
41546;SDS011;27271;45.412;10.852;2022-12-08T00:02:46;31.80;;;14.80;;
41546;SDS011;27271;45.412;10.852;2022-12-08T00:06:19;27.88;;;13.95;;
41546;SDS011;27271;45.412;10.852;2022-12-08T00:10:00;30.85;;;15.77;;
41546;SDS011;27271;45.412;10.852;2022-12-08T00:13:42;28.23;;;13.55;;
41546;SDS011;27271;45.412;10.852;2022-12-08T00:17:05;30.55;;;13.38;;
41546;SDS011;27271;45.412;10.852;2022-12-08T00:20:30;25.90;;;14.27;;
41546;SDS011;27271;45.412;10.852;2022-12-08T00:23:53;32.75;;;15.52;;
41546;SDS011;27271;45.412;10.852;2022-12-08T00:27:16;27.20;;;12.57;;
41546;SDS011;27271;45.412;10.852;2022-12-08T00:30:39;33.13;;;13.68;;
41546;SDS011;27271;45.412;10.852;2022-12-08T00:34:02;26.25;;;12.88;;
41546;SDS011;27271;45.412;10.852;2022-12-08T00:37:24;24.05;;;12.13;;
41546;SDS011;27271;45.412;10.852;2022-12-08T00:40:46;24.98;;;12.07;;
41546;SDS011;27271;45.412;10.852;2022-12-08T00:44:09;32.53;;;14.20;;
41546;SDS011;27271;45.412;10.852;2022-12-08T00:47:32;27.00;;;12.77;;
41546;SDS011;27271;45.412;10.852;2022-12-08T00:50:54;23.92;;;12.52;;
41546;SDS011;27271;45.412;10.852;2022-12-08T00:54:16;27.75;;;12.73;;
41546;SDS011;27271;45.412;10.852;2022-12-08T00:57:39;25.75;;;14.30;;
41546;SDS011;27271;45.412;10.852;2022-12-08T01:01:01;25.75;;;12.00;;
41546;SDS011;27271;45.412;10.852;2022-12-08T01:04:23;24.95;;;11.65;;
41546;SDS011;27271;45.412;10.852;2022-12-08T01:07:46;19.70;;;10.57;;
41546;SDS011;27271;45.412;10.852;2022-12-08T01:11:10;27.38;;;11.85;;
41546;SDS011;27271;45.412;10.852;2022-12-08T01:14:35;28.67;;;13.60;;
41546;SDS011;27271;45.412;10.852;2022-12-08T01:17:57;33.47;;;13.63;;
41546;SDS011;27271;45.412;10.852;2022-12-08T01:21:19;27.95;;;12.57;;
41546;SDS011;27271;45.412;10.852;2022-12-08T01:24:42;23.48;;;11.85;;
41546;SDS011;27271;45.412;10.852;2022-12-08T01:28:04;25.13;;;11.80;;
41546;SDS011;27271;45.412;10.852;2022-12-08T01:31:26;24.15;;;10.23;;
41546;SDS011;27271;45.412;10.852;2022-12-08T01:34:48;20.20;;;9.63;;
41546;SDS011;27271;45.412;10.852;2022-12-08T01:38:10;20.25;;;10.80;;
41546;SDS011;27271;45.412;10.852;2022-12-08T01:41:33;18.27;;;9.85;;
41546;SDS011;27271;45.412;10.852;2022-12-08T01:45:00;18.23;;;9.82;;
41546;SDS011;27271;45.412;10.852;2022-12-08T01:48:24;18.65;;;8.50;;
41546;SDS011;27271;45.412;10.852;2022-12-08T01:55:16;21.05;;;10.50;;
41546;SDS011;27271;45.412;10.852;2022-12-08T01:58:43;19.15;;;10.07;;
41546;SDS011;27271;45.412;10.852;2022-12-08T02:02:08;24.23;;;10.82;;
41546;SDS011;27271;45.412;10.852;2022-12-08T02:05:32;26.30;;;11.20;;
41546;SDS011;27271;45.412;10.852;2022-12-08T02:08:58;30.15;;;13.07;;
41546;SDS011;27271;45.412;10.852;2022-12-08T02:12:22;28.77;;;10.80;;
41546;SDS011;27271;45.412;10.852;2022-12-08T02:15:59;23.80;;;11.02;;
41546;SDS011;27271;45.412;10.852;2022-12-08T02:23:14;24.50;;;11.07;;
41546;SDS011;27271;45.412;10.852;2022-12-08T02:37:34;23.45;;;10.55;;
41546;SDS011;27271;45.412;10.852;2022-12-08T02:44:29;26.50;;;10.88;;
41546;SDS011;27271;45.412;10.852;2022-12-08T02:47:52;22.08;;;10.63;;
41546;SDS011;27271;45.412;10.852;2022-12-08T02:51:14;25.70;;;10.98;;
41546;SDS011;27271;45.412;10.852;2022-12-08T02:54:36;24.27;;;11.43;;
41546;SDS011;27271;45.412;10.852;2022-12-08T02:58:25;21.17;;;9.73;;
41546;SDS011;27271;45.412;10.852;2022-12-08T03:09:14;25.25;;;9.98;;
41546;SDS011;27271;45.412;10.852;2022-12-08T03:12:48;25.25;;;9.85;;
41546;SDS011;27271;45.412;10.852;2022-12-08T03:16:33;23.92;;;10.02;;
41546;SDS011;27271;45.412;10.852;2022-12-08T03:19:59;23.25;;;10.43;;
41546;SDS011;27271;45.412;10.852;2022-12-08T03:23:27;15.10;;;7.82;;
41546;SDS011;27271;45.412;10.852;2022-12-08T03:27:09;19.75;;;9.00;;
41546;SDS011;27271;45.412;10.852;2022-12-08T03:30:36;15.48;;;8.18;;
41546;SDS011;27271;45.412;10.852;2022-12-08T03:34:02;16.08;;;7.72;;
41546;SDS011;27271;45.412;10.852;2022-12-08T03:37:26;16.55;;;8.80;;
41546;SDS011;27271;45.412;10.852;2022-12-08T03:40:48;20.58;;;9.30;;
41546;SDS011;27271;45.412;10.852;2022-12-08T03:44:30;18.00;;;9.07;;
41546;SDS011;27271;45.412;10.852;2022-12-08T03:47:52;26.10;;;11.77;;
41546;SDS011;27271;45.412;10.852;2022-12-08T03:51:15;26.33;;;11.98;;
41546;SDS011;27271;45.412;10.852;2022-12-08T03:54:37;29.92;;;11.20;;
41546;SDS011;27271;45.412;10.852;2022-12-08T03:57:59;23.67;;;11.35;;
41546;SDS011;27271;45.412;10.852;2022-12-08T04:01:21;29.00;;;11.27;;
41546;SDS011;27271;45.412;10.852;2022-12-08T04:04:44;22.80;;;10.38;;
41546;SDS011;27271;45.412;10.852;2022-12-08T04:08:06;20.30;;;10.45;;
41546;SDS011;27271;45.412;10.852;2022-12-08T04:11:28;22.55;;;10.88;;
41546;SDS011;27271;45.412;10.852;2022-12-08T04:14:50;22.02;;;9.88;;
41546;SDS011;27271;45.412;10.852;2022-12-08T04:18:12;21.77;;;9.15;;
41546;SDS011;27271;45.412;10.852;2022-12-08T04:21:34;17.60;;;9.07;;
41546;SDS011;27271;45.412;10.852;2022-12-08T04:24:56;18.58;;;8.38;;
41546;SDS011;27271;45.412;10.852;2022-12-08T04:28:18;14.57;;;7.60;;
41546;SDS011;27271;45.412;10.852;2022-12-08T04:31:40;15.65;;;6.60;;
41546;SDS011;27271;45.412;10.852;2022-12-08T04:35:03;15.32;;;6.82;;
41546;SDS011;27271;45.412;10.852;2022-12-08T04:38:25;17.92;;;8.40;;
41546;SDS011;27271;45.412;10.852;2022-12-08T04:41:47;15.13;;;6.57;;
41546;SDS011;27271;45.412;10.852;2022-12-08T04:45:09;21.85;;;9.05;;
41546;SDS011;27271;45.412;10.852;2022-12-08T04:48:31;24.92;;;9.27;;
41546;SDS011;27271;45.412;10.852;2022-12-08T04:51:54;13.25;;;7.47;;
41546;SDS011;27271;45.412;10.852;2022-12-08T04:55:16;23.98;;;10.80;;
41546;SDS011;27271;45.412;10.852;2022-12-08T04:58:38;15.60;;;8.07;;
41546;SDS011;27271;45.412;10.852;2022-12-08T05:02:00;13.32;;;6.78;;
41546;SDS011;27271;45.412;10.852;2022-12-08T05:05:22;12.55;;;6.25;;
41546;SDS011;27271;45.412;10.852;2022-12-08T05:08:44;21.90;;;9.88;;
41546;SDS011;27271;45.412;10.852;2022-12-08T05:12:07;8.93;;;4.70;;
41546;SDS011;27271;45.412;10.852;2022-12-08T05:15:31;12.18;;;6.03;;
41546;SDS011;27271;45.412;10.852;2022-12-08T05:18:53;11.95;;;6.43;;
41546;SDS011;27271;45.412;10.852;2022-12-08T05:22:15;11.38;;;5.75;;
41546;SDS011;27271;45.412;10.852;2022-12-08T05:25:37;15.30;;;7.70;;
41546;SDS011;27271;45.412;10.852;2022-12-08T05:28:59;24.73;;;10.57;;
41546;SDS011;27271;45.412;10.852;2022-12-08T05:32:21;15.82;;;7.53;;
41546;SDS011;27271;45.412;10.852;2022-12-08T05:35:43;13.98;;;6.40;;
41546;SDS011;27271;45.412;10.852;2022-12-08T05:39:05;12.48;;;5.63;;
41546;SDS011;27271;45.412;10.852;2022-12-08T05:42:27;12.35;;;5.53;;
41546;SDS011;27271;45.412;10.852;2022-12-08T05:45:49;10.43;;;5.32;;
41546;SDS011;27271;45.412;10.852;2022-12-08T05:49:12;11.10;;;4.53;;
41546;SDS011;27271;45.412;10.852;2022-12-08T05:52:34;12.88;;;4.97;;
41546;SDS011;27271;45.412;10.852;2022-12-08T05:55:56;14.10;;;5.53;;
41546;SDS011;27271;45.412;10.852;2022-12-08T05:59:18;8.50;;;4.22;;
41546;SDS011;27271;45.412;10.852;2022-12-08T06:02:40;15.93;;;7.63;;
41546;SDS011;27271;45.412;10.852;2022-12-08T06:06:02;16.58;;;8.15;;
41546;SDS011;27271;45.412;10.852;2022-12-08T06:09:24;9.35;;;5.47;;
41546;SDS011;27271;45.412;10.852;2022-12-08T06:12:46;12.48;;;5.70;;
41546;SDS011;27271;45.412;10.852;2022-12-08T06:16:08;12.50;;;5.60;;
41546;SDS011;27271;45.412;10.852;2022-12-08T06:19:30;14.60;;;6.10;;
41546;SDS011;27271;45.412;10.852;2022-12-08T06:22:53;9.63;;;5.28;;
41546;SDS011;27271;45.412;10.852;2022-12-08T06:26:15;15.82;;;8.75;;
41546;SDS011;27271;45.412;10.852;2022-12-08T06:29:38;11.40;;;6.15;;
41546;SDS011;27271;45.412;10.852;2022-12-08T06:33:01;9.63;;;5.32;;
41546;SDS011;27271;45.412;10.852;2022-12-08T06:36:24;12.52;;;4.97;;
41546;SDS011;27271;45.412;10.852;2022-12-08T06:39:47;8.15;;;4.57;;
41546;SDS011;27271;45.412;10.852;2022-12-08T06:43:09;9.50;;;4.72;;
41546;SDS011;27271;45.412;10.852;2022-12-08T06:46:31;12.38;;;5.82;;
41546;SDS011;27271;45.412;10.852;2022-12-08T06:49:53;10.88;;;5.75;;
41546;SDS011;27271;45.412;10.852;2022-12-08T06:53:15;12.43;;;6.45;;
41546;SDS011;27271;45.412;10.852;2022-12-08T06:56:38;12.52;;;6.45;;
41546;SDS011;27271;45.412;10.852;2022-12-08T07:00:00;14.35;;;5.60;;
41546;SDS011;27271;45.412;10.852;2022-12-08T07:03:23;12.60;;;6.55;;
41546;SDS011;27271;45.412;10.852;2022-12-08T07:06:45;15.38;;;6.88;;
41546;SDS011;27271;45.412;10.852;2022-12-08T07:10:07;16.77;;;6.38;;
41546;SDS011;27271;45.412;10.852;2022-12-08T07:13:29;14.55;;;6.57;;
41546;SDS011;27271;45.412;10.852;2022-12-08T07:16:51;13.60;;;6.03;;
41546;SDS011;27271;45.412;10.852;2022-12-08T07:20:13;11.82;;;6.10;;
41546;SDS011;27271;45.412;10.852;2022-12-08T07:23:36;11.30;;;5.30;;
41546;SDS011;27271;45.412;10.852;2022-12-08T07:26:58;10.75;;;4.10;;
41546;SDS011;27271;45.412;10.852;2022-12-08T07:30:20;12.07;;;4.63;;
41546;SDS011;27271;45.412;10.852;2022-12-08T07:33:42;12.32;;;5.75;;
41546;SDS011;27271;45.412;10.852;2022-12-08T07:37:04;8.98;;;5.10;;
41546;SDS011;27271;45.412;10.852;2022-12-08T07:40:26;13.05;;;5.97;;
41546;SDS011;27271;45.412;10.852;2022-12-08T07:43:48;14.25;;;6.03;;
41546;SDS011;27271;45.412;10.852;2022-12-08T07:47:11;21.88;;;7.72;;
41546;SDS011;27271;45.412;10.852;2022-12-08T07:50:33;15.40;;;7.10;;
41546;SDS011;27271;45.412;10.852;2022-12-08T07:53:55;14.00;;;6.82;;
41546;SDS011;27271;45.412;10.852;2022-12-08T07:57:17;18.25;;;6.93;;
41546;SDS011;27271;45.412;10.852;2022-12-08T08:00:39;13.40;;;6.75;;
41546;SDS011;27271;45.412;10.852;2022-12-08T08:04:02;14.35;;;6.40;;
41546;SDS011;27271;45.412;10.852;2022-12-08T08:07:25;19.13;;;7.40;;
41546;SDS011;27271;45.412;10.852;2022-12-08T08:10:47;24.83;;;9.60;;
41546;SDS011;27271;45.412;10.852;2022-12-08T08:14:10;38.58;;;23.75;;
41546;SDS011;27271;45.412;10.852;2022-12-08T08:17:33;21.73;;;11.27;;
41546;SDS011;27271;45.412;10.852;2022-12-08T08:21:12;31.52;;;14.02;;
41546;SDS011;27271;45.412;10.852;2022-12-08T08:25:31;33.75;;;14.60;;
41546;SDS011;27271;45.412;10.852;2022-12-08T08:29:00;42.30;;;16.65;;
41546;SDS011;27271;45.412;10.852;2022-12-08T08:32:24;44.60;;;18.85;;
41546;SDS011;27271;45.412;10.852;2022-12-08T08:35:46;42.50;;;17.98;;
41546;SDS011;27271;45.412;10.852;2022-12-08T08:39:08;43.15;;;19.60;;
41546;SDS011;27271;45.412;10.852;2022-12-08T08:42:30;48.88;;;18.95;;
41546;SDS011;27271;45.412;10.852;2022-12-08T08:45:56;49.72;;;19.20;;
41546;SDS011;27271;45.412;10.852;2022-12-08T08:49:19;62.30;;;27.75;;
41546;SDS011;27271;45.412;10.852;2022-12-08T08:52:41;49.17;;;21.40;;
41546;SDS011;27271;45.412;10.852;2022-12-08T08:56:10;52.50;;;24.75;;
41546;SDS011;27271;45.412;10.852;2022-12-08T08:59:33;45.33;;;20.15;;
41546;SDS011;27271;45.412;10.852;2022-12-08T09:02:55;42.60;;;18.20;;
41546;SDS011;27271;45.412;10.852;2022-12-08T09:06:18;43.08;;;20.70;;
41546;SDS011;27271;45.412;10.852;2022-12-08T09:09:40;46.72;;;19.77;;
41546;SDS011;27271;45.412;10.852;2022-12-08T09:13:02;44.80;;;22.50;;
41546;SDS011;27271;45.412;10.852;2022-12-08T09:16:24;44.28;;;19.05;;
41546;SDS011;27271;45.412;10.852;2022-12-08T09:19:46;35.20;;;17.70;;
41546;SDS011;27271;45.412;10.852;2022-12-08T09:23:08;31.85;;;15.65;;
41546;SDS011;27271;45.412;10.852;2022-12-08T09:26:30;26.88;;;14.48;;
41546;SDS011;27271;45.412;10.852;2022-12-08T09:29:52;31.08;;;15.65;;
41546;SDS011;27271;45.412;10.852;2022-12-08T09:33:14;33.15;;;16.25;;
41546;SDS011;27271;45.412;10.852;2022-12-08T09:36:36;32.95;;;18.13;;
41546;SDS011;27271;45.412;10.852;2022-12-08T09:39:59;32.10;;;17.52;;
41546;SDS011;27271;45.412;10.852;2022-12-08T09:43:42;30.02;;;15.05;;
41546;SDS011;27271;45.412;10.852;2022-12-08T09:50:53;23.35;;;12.73;;
41546;SDS011;27271;45.412;10.852;2022-12-08T09:54:21;19.40;;;10.43;;
41546;SDS011;27271;45.412;10.852;2022-12-08T09:58:05;13.05;;;7.32;;
41546;SDS011;27271;45.412;10.852;2022-12-08T10:01:36;13.65;;;7.10;;
41546;SDS011;27271;45.412;10.852;2022-12-08T10:05:02;11.13;;;6.72;;
41546;SDS011;27271;45.412;10.852;2022-12-08T10:08:27;12.50;;;6.95;;
41546;SDS011;27271;45.412;10.852;2022-12-08T10:12:02;12.95;;;7.47;;
41546;SDS011;27271;45.412;10.852;2022-12-08T10:22:39;11.00;;;5.20;;
41546;SDS011;27271;45.412;10.852;2022-12-08T10:26:13;21.88;;;7.97;;
41546;SDS011;27271;45.412;10.852;2022-12-08T10:29:37;17.13;;;10.07;;
41546;SDS011;27271;45.412;10.852;2022-12-08T10:33:00;15.43;;;8.25;;
41546;SDS011;27271;45.412;10.852;2022-12-08T10:36:22;17.00;;;9.13;;
41546;SDS011;27271;45.412;10.852;2022-12-08T10:43:29;15.73;;;8.73;;
41546;SDS011;27271;45.412;10.852;2022-12-08T10:46:52;15.95;;;9.05;;
41546;SDS011;27271;45.412;10.852;2022-12-08T10:50:19;15.82;;;9.13;;
41546;SDS011;27271;45.412;10.852;2022-12-08T10:53:44;15.43;;;8.48;;
41546;SDS011;27271;45.412;10.852;2022-12-08T10:57:08;17.48;;;8.68;;
41546;SDS011;27271;45.412;10.852;2022-12-08T11:00:41;12.38;;;7.72;;
41546;SDS011;27271;45.412;10.852;2022-12-08T11:04:04;11.65;;;7.22;;
41546;SDS011;27271;45.412;10.852;2022-12-08T11:07:33;17.57;;;7.77;;
41546;SDS011;27271;45.412;10.852;2022-12-08T11:10:55;21.63;;;10.10;;
41546;SDS011;27271;45.412;10.852;2022-12-08T11:14:18;18.95;;;10.30;;
41546;SDS011;27271;45.412;10.852;2022-12-08T11:17:43;21.08;;;11.70;;
41546;SDS011;27271;45.412;10.852;2022-12-08T11:21:17;23.65;;;13.23;;
41546;SDS011;27271;45.412;10.852;2022-12-08T11:24:39;24.05;;;13.05;;
41546;SDS011;27271;45.412;10.852;2022-12-08T11:28:03;22.60;;;13.60;;
41546;SDS011;27271;45.412;10.852;2022-12-08T11:31:33;25.42;;;15.02;;
41546;SDS011;27271;45.412;10.852;2022-12-08T11:35:01;25.25;;;13.77;;
41546;SDS011;27271;45.412;10.852;2022-12-08T11:38:26;26.95;;;15.50;;
41546;SDS011;27271;45.412;10.852;2022-12-08T11:41:48;21.27;;;12.43;;
41546;SDS011;27271;45.412;10.852;2022-12-08T11:45:15;19.73;;;12.32;;
41546;SDS011;27271;45.412;10.852;2022-12-08T11:49:01;25.02;;;13.52;;
41546;SDS011;27271;45.412;10.852;2022-12-08T11:55:59;24.20;;;13.80;;
41546;SDS011;27271;45.412;10.852;2022-12-08T11:59:31;26.38;;;13.52;;
41546;SDS011;27271;45.412;10.852;2022-12-08T12:10:46;25.25;;;11.20;;
41546;SDS011;27271;45.412;10.852;2022-12-08T12:21:48;12.80;;;7.32;;
41546;SDS011;27271;45.412;10.852;2022-12-08T12:32:20;11.70;;;8.15;;
41546;SDS011;27271;45.412;10.852;2022-12-08T12:35:43;9.30;;;7.20;;
41546;SDS011;27271;45.412;10.852;2022-12-08T12:39:08;10.55;;;6.13;;
41546;SDS011;27271;45.412;10.852;2022-12-08T12:42:35;10.25;;;5.55;;
41546;SDS011;27271;45.412;10.852;2022-12-08T12:56:47;7.70;;;4.65;;
41546;SDS011;27271;45.412;10.852;2022-12-08T13:00:18;8.00;;;4.78;;
41546;SDS011;27271;45.412;10.852;2022-12-08T13:03:44;8.25;;;4.75;;
41546;SDS011;27271;45.412;10.852;2022-12-08T13:14:34;7.63;;;4.53;;
41546;SDS011;27271;45.412;10.852;2022-12-08T13:17:58;6.10;;;3.80;;
41546;SDS011;27271;45.412;10.852;2022-12-08T13:21:21;9.50;;;4.78;;
41546;SDS011;27271;45.412;10.852;2022-12-08T13:24:45;9.68;;;4.88;;
41546;SDS011;27271;45.412;10.852;2022-12-08T13:31:54;9.20;;;4.80;;
41546;SDS011;27271;45.412;10.852;2022-12-08T13:35:20;8.40;;;4.97;;
41546;SDS011;27271;45.412;10.852;2022-12-08T13:38:44;9.70;;;5.90;;
41546;SDS011;27271;45.412;10.852;2022-12-08T13:45:33;7.40;;;4.72;;
41546;SDS011;27271;45.412;10.852;2022-12-08T13:49:20;6.85;;;4.97;;
41546;SDS011;27271;45.412;10.852;2022-12-08T13:53:23;7.47;;;4.20;;
41546;SDS011;27271;45.412;10.852;2022-12-08T13:57:29;23.77;;;11.57;;
41546;SDS011;27271;45.412;10.852;2022-12-08T14:04:42;6.45;;;3.22;;
41546;SDS011;27271;45.412;10.852;2022-12-08T14:12:23;7.15;;;3.85;;
41546;SDS011;27271;45.412;10.852;2022-12-08T14:15:52;11.18;;;6.68;;
41546;SDS011;27271;45.412;10.852;2022-12-08T14:19:16;6.70;;;4.35;;
41546;SDS011;27271;45.412;10.852;2022-12-08T14:22:40;7.18;;;4.72;;
41546;SDS011;27271;45.412;10.852;2022-12-08T14:26:02;8.25;;;4.63;;
41546;SDS011;27271;45.412;10.852;2022-12-08T14:33:05;11.63;;;6.85;;
41546;SDS011;27271;45.412;10.852;2022-12-08T14:36:37;12.45;;;7.13;;
41546;SDS011;27271;45.412;10.852;2022-12-08T14:40:01;10.23;;;5.57;;
41546;SDS011;27271;45.412;10.852;2022-12-08T14:43:30;15.45;;;8.23;;
41546;SDS011;27271;45.412;10.852;2022-12-08T14:47:08;22.40;;;10.43;;
41546;SDS011;27271;45.412;10.852;2022-12-08T14:54:12;30.67;;;16.00;;
41546;SDS011;27271;45.412;10.852;2022-12-08T14:57:39;31.98;;;17.65;;
41546;SDS011;27271;45.412;10.852;2022-12-08T15:01:01;26.38;;;13.55;;
41546;SDS011;27271;45.412;10.852;2022-12-08T15:04:27;29.23;;;15.80;;
41546;SDS011;27271;45.412;10.852;2022-12-08T15:07:50;24.30;;;12.43;;
41546;SDS011;27271;45.412;10.852;2022-12-08T15:11:23;24.55;;;12.55;;
41546;SDS011;27271;45.412;10.852;2022-12-08T15:18:37;28.58;;;13.75;;
41546;SDS011;27271;45.412;10.852;2022-12-08T15:22:16;24.75;;;13.27;;
41546;SDS011;27271;45.412;10.852;2022-12-08T15:25:42;25.73;;;14.77;;
41546;SDS011;27271;45.412;10.852;2022-12-08T15:29:11;28.65;;;14.02;;
41546;SDS011;27271;45.412;10.852;2022-12-08T15:32:42;31.30;;;14.60;;
41546;SDS011;27271;45.412;10.852;2022-12-08T15:36:04;29.15;;;14.13;;
41546;SDS011;27271;45.412;10.852;2022-12-08T15:42:56;26.23;;;14.00;;
41546;SDS011;27271;45.412;10.852;2022-12-08T15:46:18;25.48;;;14.68;;
41546;SDS011;27271;45.412;10.852;2022-12-08T15:49:40;34.47;;;15.75;;
41546;SDS011;27271;45.412;10.852;2022-12-08T15:53:02;27.10;;;15.13;;
41546;SDS011;27271;45.412;10.852;2022-12-08T15:56:24;31.58;;;15.57;;
41546;SDS011;27271;45.412;10.852;2022-12-08T15:59:48;33.13;;;16.50;;
41546;SDS011;27271;45.412;10.852;2022-12-08T16:03:20;39.92;;;16.50;;
41546;SDS011;27271;45.412;10.852;2022-12-08T16:07:04;42.33;;;17.10;;
41546;SDS011;27271;45.412;10.852;2022-12-08T16:10:42;39.38;;;16.08;;
41546;SDS011;27271;45.412;10.852;2022-12-08T16:14:25;44.35;;;18.77;;
41546;SDS011;27271;45.412;10.852;2022-12-08T16:18:12;56.45;;;20.35;;
41546;SDS011;27271;45.412;10.852;2022-12-08T16:21:45;45.72;;;20.05;;
41546;SDS011;27271;45.412;10.852;2022-12-08T16:25:27;46.95;;;19.50;;
41546;SDS011;27271;45.412;10.852;2022-12-08T16:29:22;54.92;;;20.05;;
41546;SDS011;27271;45.412;10.852;2022-12-08T16:32:45;47.28;;;18.08;;
41546;SDS011;27271;45.412;10.852;2022-12-08T16:36:08;73.63;;;31.25;;
41546;SDS011;27271;45.412;10.852;2022-12-08T16:39:32;62.30;;;25.65;;
41546;SDS011;27271;45.412;10.852;2022-12-08T16:42:59;50.65;;;21.30;;
41546;SDS011;27271;45.412;10.852;2022-12-08T16:46:29;52.55;;;21.00;;
41546;SDS011;27271;45.412;10.852;2022-12-08T16:49:52;243.93;;;74.75;;
41546;SDS011;27271;45.412;10.852;2022-12-08T16:53:15;63.78;;;25.33;;
41546;SDS011;27271;45.412;10.852;2022-12-08T16:56:38;54.75;;;23.05;;
41546;SDS011;27271;45.412;10.852;2022-12-08T17:00:04;49.03;;;22.00;;
41546;SDS011;27271;45.412;10.852;2022-12-08T17:03:29;45.05;;;18.52;;
41546;SDS011;27271;45.412;10.852;2022-12-08T17:06:56;44.28;;;18.27;;
41546;SDS011;27271;45.412;10.852;2022-12-08T17:10:22;48.58;;;20.00;;
41546;SDS011;27271;45.412;10.852;2022-12-08T17:13:46;45.40;;;19.52;;
41546;SDS011;27271;45.412;10.852;2022-12-08T17:17:08;50.22;;;18.58;;
41546;SDS011;27271;45.412;10.852;2022-12-08T17:20:32;46.97;;;19.80;;
41546;SDS011;27271;45.412;10.852;2022-12-08T17:23:59;53.25;;;21.05;;
41546;SDS011;27271;45.412;10.852;2022-12-08T17:27:21;55.13;;;22.05;;
41546;SDS011;27271;45.412;10.852;2022-12-08T17:30:44;52.03;;;20.63;;
41546;SDS011;27271;45.412;10.852;2022-12-08T17:34:13;45.35;;;19.65;;
41546;SDS011;27271;45.412;10.852;2022-12-08T17:37:36;53.10;;;22.20;;
41546;SDS011;27271;45.412;10.852;2022-12-08T17:41:02;58.30;;;22.70;;
41546;SDS011;27271;45.412;10.852;2022-12-08T17:44:26;61.30;;;23.80;;
41546;SDS011;27271;45.412;10.852;2022-12-08T17:47:55;49.47;;;21.37;;
41546;SDS011;27271;45.412;10.852;2022-12-08T17:51:18;53.72;;;22.33;;
41546;SDS011;27271;45.412;10.852;2022-12-08T17:54:41;50.22;;;21.08;;
41546;SDS011;27271;45.412;10.852;2022-12-08T17:58:04;55.42;;;23.25;;
41546;SDS011;27271;45.412;10.852;2022-12-08T18:01:27;54.40;;;21.85;;
41546;SDS011;27271;45.412;10.852;2022-12-08T18:04:50;59.40;;;21.67;;
41546;SDS011;27271;45.412;10.852;2022-12-08T18:08:13;47.67;;;21.77;;
41546;SDS011;27271;45.412;10.852;2022-12-08T18:11:36;56.42;;;22.83;;
41546;SDS011;27271;45.412;10.852;2022-12-08T18:14:59;54.33;;;23.75;;
41546;SDS011;27271;45.412;10.852;2022-12-08T18:18:22;59.88;;;24.10;;
41546;SDS011;27271;45.412;10.852;2022-12-08T18:21:45;58.95;;;23.35;;
41546;SDS011;27271;45.412;10.852;2022-12-08T18:25:08;57.97;;;24.00;;
41546;SDS011;27271;45.412;10.852;2022-12-08T18:28:35;61.38;;;23.95;;
41546;SDS011;27271;45.412;10.852;2022-12-08T18:31:58;57.10;;;23.10;;
41546;SDS011;27271;45.412;10.852;2022-12-08T18:35:22;57.80;;;24.27;;
41546;SDS011;27271;45.412;10.852;2022-12-08T18:38:45;58.13;;;24.38;;
41546;SDS011;27271;45.412;10.852;2022-12-08T18:42:10;56.70;;;23.65;;
41546;SDS011;27271;45.412;10.852;2022-12-08T18:45:46;54.45;;;22.55;;
41546;SDS011;27271;45.412;10.852;2022-12-08T18:49:10;60.60;;;24.50;;
41546;SDS011;27271;45.412;10.852;2022-12-08T18:52:33;58.25;;;23.67;;
41546;SDS011;27271;45.412;10.852;2022-12-08T18:55:56;47.85;;;21.75;;
41546;SDS011;27271;45.412;10.852;2022-12-08T18:59:18;62.30;;;25.50;;
41546;SDS011;27271;45.412;10.852;2022-12-08T19:02:43;50.25;;;20.15;;
41546;SDS011;27271;45.412;10.852;2022-12-08T19:06:06;53.92;;;22.48;;
41546;SDS011;27271;45.412;10.852;2022-12-08T19:09:29;61.13;;;23.88;;
41546;SDS011;27271;45.412;10.852;2022-12-08T19:12:52;54.42;;;21.60;;
41546;SDS011;27271;45.412;10.852;2022-12-08T19:16:18;52.88;;;20.27;;
41546;SDS011;27271;45.412;10.852;2022-12-08T19:19:42;54.17;;;22.30;;
41546;SDS011;27271;45.412;10.852;2022-12-08T19:23:04;57.30;;;23.75;;
41546;SDS011;27271;45.412;10.852;2022-12-08T19:26:28;54.28;;;22.70;;
41546;SDS011;27271;45.412;10.852;2022-12-08T19:29:51;53.38;;;24.40;;
41546;SDS011;27271;45.412;10.852;2022-12-08T19:33:14;54.88;;;22.75;;
41546;SDS011;27271;45.412;10.852;2022-12-08T19:36:38;56.15;;;23.88;;
41546;SDS011;27271;45.412;10.852;2022-12-08T19:40:05;60.60;;;22.85;;
41546;SDS011;27271;45.412;10.852;2022-12-08T19:43:47;55.53;;;21.85;;
41546;SDS011;27271;45.412;10.852;2022-12-08T19:47:31;59.45;;;22.60;;
41546;SDS011;27271;45.412;10.852;2022-12-08T19:50:54;49.85;;;22.25;;
41546;SDS011;27271;45.412;10.852;2022-12-08T19:54:20;59.55;;;22.25;;
41546;SDS011;27271;45.412;10.852;2022-12-08T19:57:43;53.42;;;22.73;;
41546;SDS011;27271;45.412;10.852;2022-12-08T20:01:06;54.03;;;21.73;;
41546;SDS011;27271;45.412;10.852;2022-12-08T20:04:29;58.13;;;24.00;;
41546;SDS011;27271;45.412;10.852;2022-12-08T20:07:53;53.92;;;22.35;;
41546;SDS011;27271;45.412;10.852;2022-12-08T20:11:17;59.60;;;26.80;;
41546;SDS011;27271;45.412;10.852;2022-12-08T20:14:43;64.07;;;25.50;;
41546;SDS011;27271;45.412;10.852;2022-12-08T20:18:07;60.58;;;25.60;;
41546;SDS011;27271;45.412;10.852;2022-12-08T20:21:31;65.80;;;28.85;;
41546;SDS011;27271;45.412;10.852;2022-12-08T20:24:53;73.63;;;29.42;;
41546;SDS011;27271;45.412;10.852;2022-12-08T20:28:21;66.93;;;27.42;;
41546;SDS011;27271;45.412;10.852;2022-12-08T20:31:44;71.00;;;28.38;;
41546;SDS011;27271;45.412;10.852;2022-12-08T20:35:08;67.20;;;27.40;;
41546;SDS011;27271;45.412;10.852;2022-12-08T20:38:31;56.75;;;26.58;;
41546;SDS011;27271;45.412;10.852;2022-12-08T20:41:54;68.88;;;27.95;;
41546;SDS011;27271;45.412;10.852;2022-12-08T20:45:17;67.50;;;28.42;;
41546;SDS011;27271;45.412;10.852;2022-12-08T20:48:56;64.13;;;26.95;;
41546;SDS011;27271;45.412;10.852;2022-12-08T20:52:28;70.78;;;29.52;;
41546;SDS011;27271;45.412;10.852;2022-12-08T20:55:51;73.43;;;28.52;;
41546;SDS011;27271;45.412;10.852;2022-12-08T20:59:14;71.30;;;28.13;;
41546;SDS011;27271;45.412;10.852;2022-12-08T21:02:38;63.83;;;28.23;;
41546;SDS011;27271;45.412;10.852;2022-12-08T21:06:12;75.68;;;29.60;;
41546;SDS011;27271;45.412;10.852;2022-12-08T21:09:35;67.32;;;27.25;;
41546;SDS011;27271;45.412;10.852;2022-12-08T21:12:58;62.70;;;26.77;;
41546;SDS011;27271;45.412;10.852;2022-12-08T21:16:23;70.80;;;28.05;;
41546;SDS011;27271;45.412;10.852;2022-12-08T21:19:46;78.35;;;29.27;;
41546;SDS011;27271;45.412;10.852;2022-12-08T21:23:09;67.18;;;28.20;;
41546;SDS011;27271;45.412;10.852;2022-12-08T21:26:32;61.30;;;27.33;;
41546;SDS011;27271;45.412;10.852;2022-12-08T21:29:55;61.67;;;25.08;;
41546;SDS011;27271;45.412;10.852;2022-12-08T21:33:17;63.10;;;25.52;;
41546;SDS011;27271;45.412;10.852;2022-12-08T21:36:41;56.15;;;25.65;;
41546;SDS011;27271;45.412;10.852;2022-12-08T21:40:05;59.97;;;26.23;;
41546;SDS011;27271;45.412;10.852;2022-12-08T21:43:30;58.00;;;24.55;;
41546;SDS011;27271;45.412;10.852;2022-12-08T21:46:56;59.45;;;26.75;;
41546;SDS011;27271;45.412;10.852;2022-12-08T21:50:23;58.03;;;26.40;;